Galdar, Spain
Current Conditions -  °F | °C
As of 9:30 AM on Thursday 29 Jan 2015 (Local Time) from GCLP Reporting Station
Broken Clouds Broken Clouds  
Wind Chill: 61°   Ceiling: 4000
Heat Index: 61°   Visibility: 6mi
Dew Point: 46°   Wind: 12mph
Humidity: 59%   Direction: 330°NNW
Pressure: 30.3"   Gusts: NA
Location:  28.14°N, 15.65°W
Report Text: GCLP 290830Z 33010KT 9999 FEW030 BKN040 16/08 Q1026 NOSIG
Loading
Personal Weather Stations






























Interactive Weather Map New forecast layout! Learn more

10-Day Weather Forecast

Advertisements
Track Severe Weather on mobile